Time;durP1;ratioP1;P1;durP2;ratioP2;P2;SDS_P1;SDS_P2;PMS_P1;PMS_P2;Temp;Humidity;BMP_temperature;BMP_pressure;BME280_temperature;BME280_humidity;BME280_pressure;Samples;Min_cycle;Max_cycle;Signal;HPM_P1;HPM_P2
2022/10/25 00:01:19;;;;;;;5.13;1.40;;;14.60;99.90;;;;;;4996775;28;20425;-84
2022/10/25 00:03:45;;;;;;;9.87;1.47;;;14.50;99.90;;;;;;5014753;28;20769;-84
2022/10/25 00:06:11;;;;;;;8.60;2.07;;;14.50;99.90;;;;;;4996724;28;20521;-84
2022/10/25 00:08:37;;;;;;;4.40;1.10;;;14.60;99.90;;;;;;5014351;28;20893;-84
2022/10/25 00:11:03;;;;;;;4.10;1.00;;;14.60;99.90;;;;;;4996321;28;20430;-83
2022/10/25 00:13:29;;;;;;;2.33;1.03;;;14.60;99.90;;;;;;5014286;28;20254;-83
2022/10/25 00:15:54;;;;;;;3.80;1.20;;;14.60;99.90;;;;;;4980120;28;20572;-83
2022/10/25 00:18:20;;;;;;;10.23;1.87;;;14.60;99.90;;;;;;5012604;28;20186;-84
2022/10/25 00:20:46;;;;;;;2.83;1.20;;;14.60;99.90;;;;;;5012776;28;20187;-83
2022/10/25 00:23:13;;;;;;;4.03;1.10;;;14.60;99.90;;;;;;5012802;28;20583;-83
2022/10/25 00:25:38;;;;;;;3.83;1.23;;;14.60;99.90;;;;;;5014022;28;20235;-84
2022/10/25 00:28:04;;;;;;;4.30;1.50;;;14.60;99.90;;;;;;5012639;28;20434;-82
2022/10/25 00:30:30;;;;;;;5.50;1.33;;;14.60;99.90;;;;;;5012277;28;20182;-83
2022/10/25 00:32:56;;;;;;;6.47;1.60;;;14.60;99.90;;;;;;5014056;28;20440;-84
2022/10/25 00:35:22;;;;;;;3.60;1.60;;;14.60;99.90;;;;;;5012532;28;21025;-83
2022/10/25 00:37:48;;;;;;;10.70;1.67;;;14.60;99.90;;;;;;4996558;28;20517;-83
2022/10/25 00:40:13;;;;;;;4.50;1.30;;;14.60;99.90;;;;;;5012469;28;20241;-83
2022/10/25 00:42:39;;;;;;;6.87;1.40;;;14.60;99.90;;;;;;5013144;28;20418;-83
2022/10/25 00:45:26;;;;;;;5.73;1.60;;;14.60;99.90;;;;;;5013455;28;20195;-83
2022/10/25 00:48:00;;;;;;;8.80;1.47;;;14.70;99.90;;;;;;5012654;28;20175;-83
2022/10/25 00:50:43;;;;;;;4.47;1.30;;;14.60;99.90;;;;;;5029233;28;20460;-84
2022/10/25 00:53:14;;;;;;;6.97;1.10;;;14.60;99.90;;;;;;5019275;28;20882;-83
2022/10/25 00:55:44;;;;;;;4.10;1.20;;;14.60;99.90;;;;;;5016935;28;20541;-84
2022/10/25 00:58:18;;;;;;;7.13;1.50;;;14.60;99.90;;;;;;5015957;28;20421;-83
2022/10/25 01:00:44;;;;;;;8.33;1.37;;;14.60;99.90;;;;;;5053218;28;20758;-83
2022/10/25 01:03:12;;;;;;;8.30;1.83;;;14.60;99.90;;;;;;5035207;28;20408;-83
2022/10/25 01:05:37;;;;;;;3.20;1.37;;;14.60;99.90;;;;;;5035217;28;20942;-84
2022/10/25 01:08:04;;;;;;;6.63;1.43;;;14.50;99.90;;;;;;5035171;28;20390;-83
2022/10/25 01:10:31;;;;;;;2.10;1.10;;;14.50;99.90;;;;;;5019381;28;20264;-83
2022/10/25 01:12:58;;;;;;;5.10;1.40;;;14.60;99.90;;;;;;5053191;28;20531;-84
2022/10/25 01:15:33;;;;;;;7.17;2.00;;;14.60;99.90;;;;;;5052602;28;20499;-83
2022/10/25 01:18:28;;;;;;;6.30;1.93;;;14.60;99.90;;;;;;5053029;28;20756;-84
2022/10/25 01:21:35;;;;;;;9.13;2.23;;;14.60;99.90;;;;;;5027191;28;20448;-83
2022/10/25 01:24:38;;;;;;;5.93;1.50;;;14.60;99.90;;;;;;5039578;28;20514;-83
2022/10/25 01:27:33;;;;;;;4.40;1.30;;;14.60;99.90;;;;;;5052678;28;20435;-84
2022/10/25 01:30:07;;;;;;;7.27;1.10;;;14.60;99.90;;;;;;5024551;28;20501;-84
2022/10/25 01:32:52;;;;;;;5.03;1.50;;;14.60;99.90;;;;;;5034901;28;20386;-84
2022/10/25 01:35:26;;;;;;;5.43;1.57;;;14.50;99.90;;;;;;5034689;28;20441;-83
2022/10/25 01:38:01;;;;;;;2.90;1.40;;;14.50;99.90;;;;;;5052920;28;20403;-84
2022/10/25 01:41:10;;;;;;;5.17;1.30;;;14.50;99.90;;;;;;5034516;28;20467;-84
2022/10/25 01:43:40;;;;;;;5.67;1.10;;;14.40;99.90;;;;;;5045345;28;20419;-84
2022/10/25 01:46:12;;;;;;;5.10;1.20;;;14.30;99.90;;;;;;5052906;28;20419;-83
2022/10/25 01:48:47;;;;;;;4.13;1.20;;;14.30;99.90;;;;;;5035100;28;20463;-83
2022/10/25 01:51:16;;;;;;;9.33;1.47;;;14.30;99.90;;;;;;5034644;28;20430;-83
2022/10/25 01:53:47;;;;;;;6.80;1.40;;;14.30;99.90;;;;;;5053098;28;20430;-83
2022/10/25 01:56:28;;;;;;;3.37;1.07;;;14.20;99.90;;;;;;5056041;28;20955;-83
2022/10/25 01:59:08;;;;;;;2.83;1.33;;;14.20;99.90;;;;;;5056852;28;20478;-84
2022/10/25 02:01:48;;;;;;;5.70;1.30;;;14.20;99.90;;;;;;5056246;28;20447;-84
2022/10/25 02:04:32;;;;;;;12.27;1.63;;;14.10;99.90;;;;;;5056021;28;20475;-83
2022/10/25 02:07:12;;;;;;;2.90;1.27;;;14.10;99.90;;;;;;5056465;28;20767;-84
2022/10/25 02:09:44;;;;;;;4.30;2.00;;;14.10;99.90;;;;;;5056468;28;20412;-83
2022/10/25 02:12:17;;;;;;;3.43;1.20;;;14.10;99.90;;;;;;5038264;28;20849;-83
2022/10/25 02:15:09;;;;;;;15.13;2.07;;;14.10;99.90;;;;;;5056095;28;20466;-84
2022/10/25 02:17:44;;;;;;;7.60;1.50;;;14.10;99.90;;;;;;5030401;28;20830;-83
2022/10/25 02:20:15;;;;;;;5.00;1.20;;;14.10;99.90;;;;;;5038026;28;20497;-83
2022/10/25 02:22:42;;;;;;;6.27;1.33;;;14.00;99.90;;;;;;5056264;28;20483;-84
2022/10/25 02:25:08;;;;;;;6.27;1.53;;;13.90;99.90;;;;;;5056013;28;20439;-84
2022/10/25 02:27:36;;;;;;;2.53;1.07;;;13.80;99.90;;;;;;5021669;28;20903;-84
2022/10/25 02:30:03;;;;;;;3.00;1.20;;;13.70;99.90;;;;;;5056174;28;20408;-84
2022/10/25 02:32:29;;;;;;;2.70;1.60;;;13.70;99.90;;;;;;5021456;28;21244;-83
2022/10/25 02:34:55;;;;;;;7.00;1.50;;;13.60;99.90;;;;;;5021417;28;20467;-84
2022/10/25 02:37:20;;;;;;;7.37;1.67;;;13.60;99.90;;;;;;5021361;28;20416;-84
2022/10/25 02:39:47;;;;;;;8.60;1.63;;;13.50;99.90;;;;;;5055920;28;20174;-84
2022/10/25 02:42:13;;;;;;;6.83;1.30;;;13.40;99.90;;;;;;5037849;28;20186;-83
2022/10/25 02:48:01;;;;;;;4.57;1.47;;;13.30;99.90;;;;;;5055728;28;20648;-84
2022/10/25 02:50:26;;;;;;;4.63;1.30;;;13.20;99.90;;;;;;5037788;28;20436;-84
2022/10/25 02:52:52;;;;;;;6.87;1.83;;;13.20;99.90;;;;;;5037859;28;20638;-84
2022/10/25 02:55:17;;;;;;;5.00;1.37;;;13.20;99.90;;;;;;5037118;28;20628;-84
2022/10/25 02:57:43;;;;;;;5.97;1.80;;;13.20;99.90;;;;;;5038185;28;20177;-84
2022/10/25 03:00:09;;;;;;;3.10;1.40;;;13.20;99.90;;;;;;5037506;28;20316;-84
2022/10/25 03:02:35;;;;;;;2.80;1.13;;;13.20;99.90;;;;;;5037643;28;20204;-84
2022/10/25 03:05:00;;;;;;;3.90;1.67;;;13.20;99.90;;;;;;5021314;28;20924;-84
2022/10/25 03:07:26;;;;;;;5.17;1.87;;;13.20;99.90;;;;;;5020472;28;20220;-84
2022/10/25 03:09:52;;;;;;;3.90;1.83;;;13.20;99.90;;;;;;5020945;28;20204;-84
2022/10/25 03:12:17;;;;;;;2.83;1.03;;;13.20;99.90;;;;;;5020797;28;20177;-84
2022/10/25 03:14:43;;;;;;;3.93;1.30;;;13.20;99.90;;;;;;5020961;28;20205;-84
2022/10/25 03:17:08;;;;;;;2.10;1.20;;;13.20;99.90;;;;;;5020749;28;20182;-84
2022/10/25 03:19:34;;;;;;;4.00;1.20;;;13.20;99.90;;;;;;5020753;28;20194;-84
2022/10/25 03:21:59;;;;;;;8.43;1.23;;;13.20;99.90;;;;;;5055104;28;20208;-84
2022/10/25 03:24:25;;;;;;;5.33;1.20;;;13.30;99.90;;;;;;5020848;28;20180;-84
2022/10/25 03:26:50;;;;;;;4.80;1.40;;;13.30;99.90;;;;;;5037343;28;20642;-83
2022/10/25 03:29:16;;;;;;;4.57;1.20;;;13.40;99.90;;;;;;5004153;28;20558;-83
2022/10/25 03:31:41;;;;;;;4.40;1.40;;;13.40;99.90;;;;;;5054956;28;20216;-84
2022/10/25 03:34:07;;;;;;;3.63;1.37;;;13.40;99.90;;;;;;5021033;28;20189;-84
2022/10/25 03:36:33;;;;;;;2.97;1.20;;;13.40;99.90;;;;;;5036900;28;21076;-84
2022/10/25 03:38:58;;;;;;;8.90;1.70;;;13.40;99.90;;;;;;5020904;28;20178;-84
2022/10/25 03:41:24;;;;;;;7.03;1.53;;;13.40;99.90;;;;;;5059213;28;20216;-83
2022/10/25 03:43:49;;;;;;;5.00;1.33;;;13.50;99.90;;;;;;5039907;28;20178;-84
2022/10/25 03:46:15;;;;;;;2.90;1.50;;;13.50;99.90;;;;;;5054080;28;20192;-84
2022/10/25 03:48:41;;;;;;;3.70;1.30;;;13.60;99.90;;;;;;5036893;28;20181;-84
2022/10/25 03:51:06;;;;;;;5.33;1.60;;;13.50;99.90;;;;;;5036853;28;20179;-84
2022/10/25 03:53:32;;;;;;;5.30;1.60;;;13.30;99.90;;;;;;5036628;28;20185;-83
2022/10/25 03:55:58;;;;;;;6.47;1.20;;;13.10;99.90;;;;;;5020656;28;20209;-83
2022/10/25 03:58:23;;;;;;;14.57;1.80;;;13.00;99.90;;;;;;5020012;28;20229;-83
2022/10/25 04:00:49;;;;;;;2.90;1.50;;;13.00;99.90;;;;;;5054846;28;20744;-82
2022/10/25 04:03:14;;;;;;;3.30;1.77;;;13.00;99.90;;;;;;5036988;28;20221;-82
2022/10/25 04:05:40;;;;;;;4.50;1.83;;;12.80;99.90;;;;;;5020372;28;20196;-80
2022/10/25 04:08:05;;;;;;;11.20;2.17;;;12.80;99.90;;;;;;5053965;28;20264;-81
2022/10/25 04:10:31;;;;;;;3.83;1.43;;;12.80;99.90;;;;;;5053119;28;20709;-81
2022/10/25 04:12:57;;;;;;;4.97;1.63;;;12.90;99.90;;;;;;5036997;28;20264;-81
2022/10/25 04:15:23;;;;;;;3.70;1.80;;;12.90;99.90;;;;;;5005834;28;20215;-80
2022/10/25 04:17:50;;;;;;;12.13;2.93;;;12.80;99.90;;;;;;5074615;28;20404;-82
2022/10/25 04:20:17;;;;;;;8.50;2.20;;;12.80;99.90;;;;;;5056732;28;20835;-82
2022/10/25 04:22:42;;;;;;;18.90;2.40;;;12.80;99.90;;;;;;5056500;28;20962;-83
2022/10/25 04:25:08;;;;;;;6.53;2.70;;;12.80;99.90;;;;;;5074285;28;20439;-83
2022/10/25 04:27:33;;;;;;;4.93;1.77;;;12.80;99.90;;;;;;5023024;28;20192;-82
2022/10/25 04:29:59;;;;;;;6.87;2.07;;;12.80;99.90;;;;;;5074728;28;20598;-81
2022/10/25 04:32:25;;;;;;;10.97;2.40;;;12.90;99.90;;;;;;5040022;28;20263;-81
2022/10/25 04:34:50;;;;;;;5.10;1.70;;;12.90;99.90;;;;;;5024042;28;20212;-81
2022/10/25 04:37:16;;;;;;;7.17;2.43;;;12.90;99.90;;;;;;5040269;28;20276;-82
2022/10/25 04:39:41;;;;;;;7.13;1.90;;;12.90;99.90;;;;;;5056544;28;20177;-81
2022/10/25 04:42:07;;;;;;;7.13;2.30;;;12.90;99.90;;;;;;5057916;28;20221;-80
2022/10/25 04:44:33;;;;;;;5.93;2.40;;;12.90;99.90;;;;;;5041321;28;20184;-80
2022/10/25 04:46:58;;;;;;;5.07;2.13;;;13.00;99.90;;;;;;5073021;28;20260;-81
2022/10/25 04:49:24;;;;;;;4.73;1.97;;;13.00;99.90;;;;;;5049826;28;20211;-81
2022/10/25 04:51:49;;;;;;;4.87;1.67;;;13.00;99.90;;;;;;5049180;28;20215;-82
2022/10/25 04:54:15;;;;;;;6.40;2.17;;;12.90;99.90;;;;;;5050940;28;20656;-82
2022/10/25 04:56:41;;;;;;;4.20;1.50;;;12.90;99.90;;;;;;5068043;28;20209;-82
2022/10/25 04:59:08;;;;;;;3.43;1.13;;;12.90;99.90;;;;;;4998125;28;20238;-82
2022/10/25 05:01:33;;;;;;;8.20;1.80;;;12.90;99.90;;;;;;5013223;28;20557;-82
2022/10/25 05:03:59;;;;;;;5.30;1.37;;;12.90;99.90;;;;;;5030019;28;20505;-82
2022/10/25 05:06:26;;;;;;;8.00;2.70;;;12.90;99.90;;;;;;5014535;28;20187;-82
2022/10/25 05:08:53;;;;;;;7.93;2.23;;;12.90;99.90;;;;;;5014147;28;20186;-82
2022/10/25 05:11:21;;;;;;;8.13;1.70;;;12.80;99.90;;;;;;5029534;28;20456;-83
2022/10/25 05:13:47;;;;;;;3.13;1.30;;;12.80;99.90;;;;;;5014646;28;20453;-82
2022/10/25 05:16:25;;;;;;;5.37;1.93;;;12.90;99.90;;;;;;5014266;28;20497;-83
2022/10/25 05:18:55;;;;;;;6.93;1.60;;;12.90;99.90;;;;;;5012912;28;20275;-82
2022/10/25 05:21:27;;;;;;;4.93;1.60;;;12.80;99.90;;;;;;5013715;28;20493;-83
2022/10/25 05:23:52;;;;;;;4.90;1.80;;;12.80;99.90;;;;;;5028929;28;20441;-83
2022/10/25 05:26:19;;;;;;;5.67;2.13;;;12.80;99.90;;;;;;5029225;28;20456;-82
2022/10/25 05:28:48;;;;;;;5.07;1.60;;;12.80;99.90;;;;;;5013456;28;20593;-82
2022/10/25 05:31:22;;;;;;;6.87;1.90;;;12.70;99.90;;;;;;5012905;28;20429;-83
2022/10/25 05:33:50;;;;;;;4.97;1.70;;;12.60;99.90;;;;;;5012306;28;20436;-83
2022/10/25 05:36:15;;;;;;;5.30;1.80;;;12.60;99.90;;;;;;5012235;28;20476;-83
2022/10/25 05:38:42;;;;;;;4.97;1.90;;;12.60;99.90;;;;;;5012072;28;20418;-83
2022/10/25 05:41:10;;;;;;;9.77;2.00;;;12.50;99.90;;;;;;5013975;28;20181;-83
2022/10/25 05:43:35;;;;;;;8.73;2.47;;;12.50;99.90;;;;;;5012216;28;20422;-83
2022/10/25 05:46:18;;;;;;;6.70;1.80;;;12.40;99.90;;;;;;5012406;28;21037;-83
2022/10/25 05:48:45;;;;;;;10.63;2.40;;;12.40;99.90;;;;;;5013080;28;20167;-83
2022/10/25 05:51:11;;;;;;;3.90;1.80;;;12.30;99.90;;;;;;5013480;28;20437;-83
2022/10/25 05:53:42;;;;;;;11.03;2.30;;;12.40;99.90;;;;;;5028301;28;20415;-84
2022/10/25 05:56:07;;;;;;;8.50;2.63;;;12.40;99.90;;;;;;5012485;28;20469;-83
2022/10/25 05:58:33;;;;;;;10.00;2.17;;;12.40;99.90;;;;;;5022939;28;20505;-83
2022/10/25 06:00:59;;;;;;;6.60;2.00;;;12.40;99.90;;;;;;5018841;28;20209;-83
2022/10/25 06:03:25;;;;;;;6.83;1.67;;;12.40;99.90;;;;;;5052499;28;20252;-83
2022/10/25 06:05:51;;;;;;;5.70;2.50;;;12.40;99.90;;;;;;5034074;28;20420;-83
2022/10/25 06:08:17;;;;;;;6.43;1.70;;;12.40;99.90;;;;;;5049664;28;20845;-83
2022/10/25 06:10:42;;;;;;;4.83;1.83;;;12.40;99.90;;;;;;5051644;28;20250;-85
2022/10/25 06:13:08;;;;;;;5.60;1.60;;;12.40;99.90;;;;;;5002007;28;20228;-86
2022/10/25 06:15:37;;;;;;;5.40;1.77;;;12.40;99.90;;;;;;5034589;28;20221;-85
2022/10/25 06:18:02;;;;;;;4.30;1.90;;;12.50;99.90;;;;;;5051788;28;20174;-86
2022/10/25 06:20:28;;;;;;;10.20;2.13;;;12.50;99.90;;;;;;5025408;28;20432;-86
2022/10/25 06:22:54;;;;;;;6.97;2.30;;;12.50;99.90;;;;;;5055131;28;20234;-85
2022/10/25 06:25:19;;;;;;;2.90;2.03;;;12.40;99.90;;;;;;5038194;28;20200;-86
2022/10/25 06:27:45;;;;;;;3.93;1.80;;;12.40;99.90;;;;;;5024288;28;20177;-86
2022/10/25 06:30:10;;;;;;;7.97;2.07;;;12.40;99.90;;;;;;5029950;28;20566;-86
2022/10/25 06:32:37;;;;;;;5.67;2.40;;;12.40;99.90;;;;;;5023443;28;20203;-86
2022/10/25 06:35:03;;;;;;;6.43;2.17;;;12.50;99.90;;;;;;5053858;28;20212;-86
2022/10/25 06:37:29;;;;;;;5.47;1.70;;;12.40;99.90;;;;;;5037346;28;20421;-86
2022/10/25 06:39:54;;;;;;;7.03;1.93;;;12.50;99.90;;;;;;5033175;28;20531;-85
2022/10/25 06:42:20;;;;;;;7.87;2.80;;;12.50;99.90;;;;;;5054355;28;20412;-84
2022/10/25 06:44:45;;;;;;;5.60;1.80;;;12.50;99.90;;;;;;5020581;28;20189;-84
2022/10/25 06:47:11;;;;;;;5.33;1.97;;;12.50;99.90;;;;;;5053333;28;20188;-84
2022/10/25 06:49:36;;;;;;;5.17;1.97;;;12.50;99.90;;;;;;5020898;28;20192;-84
2022/10/25 06:52:02;;;;;;;5.27;1.67;;;12.40;99.90;;;;;;5037579;28;20220;-84
2022/10/25 06:54:28;;;;;;;9.50;2.40;;;12.50;99.90;;;;;;5036590;28;20178;-84
2022/10/25 06:56:53;;;;;;;7.13;1.57;;;12.50;99.90;;;;;;5055456;28;20754;-85
2022/10/25 06:59:19;;;;;;;9.27;2.20;;;12.50;99.90;;;;;;5047741;28;20236;-85
2022/10/25 07:01:45;;;;;;;5.33;1.83;;;12.60;99.90;;;;;;5056403;28;20288;-84
2022/10/25 07:04:10;;;;;;;6.53;1.93;;;12.60;99.90;;;;;;5019635;28;20181;-86
2022/10/25 07:06:36;;;;;;;6.53;1.73;;;12.60;99.90;;;;;;5053950;28;20416;-83
2022/10/25 07:09:03;;;;;;;6.63;1.90;;;12.70;99.90;;;;;;5020746;28;20200;-84
2022/10/25 07:11:31;;;;;;;9.20;2.10;;;12.60;99.90;;;;;;5037037;28;20423;-83
2022/10/25 07:13:58;;;;;;;7.03;2.57;;;12.70;99.90;;;;;;5055430;28;20408;-83
2022/10/25 07:16:24;;;;;;;5.27;2.10;;;12.70;99.90;;;;;;5054166;28;20467;-84
2022/10/25 07:18:50;;;;;;;5.67;1.77;;;12.70;99.90;;;;;;5050914;28;20541;-83
2022/10/25 07:21:21;;;;;;;5.13;1.40;;;12.70;99.90;;;;;;5047651;28;20878;-83
2022/10/25 07:23:47;;;;;;;3.90;1.73;;;12.70;99.90;;;;;;5036622;28;20201;-83
2022/10/25 07:26:16;;;;;;;7.03;1.80;;;12.70;99.90;;;;;;5020705;28;20432;-84
2022/10/25 07:28:44;;;;;;;6.43;1.50;;;12.70;99.90;;;;;;5053205;28;20477;-87
2022/10/25 07:31:21;;;;;;;8.63;1.87;;;12.70;99.90;;;;;;5054026;28;20431;-87
2022/10/25 07:33:48;;;;;;;9.33;2.20;;;12.70;99.90;;;;;;5054344;28;20455;-87
2022/10/25 07:36:13;;;;;;;6.07;2.90;;;12.70;99.90;;;;;;5037056;28;20475;-88
2022/10/25 07:38:39;;;;;;;8.20;2.57;;;12.80;99.90;;;;;;5037161;28;20736;-87
2022/10/25 07:41:05;;;;;;;6.63;2.17;;;12.80;99.90;;;;;;5037976;28;20216;-87
2022/10/25 07:43:31;;;;;;;6.50;2.10;;;12.90;99.90;;;;;;5020485;28;20189;-87
2022/10/25 07:45:56;;;;;;;6.47;2.00;;;12.90;99.90;;;;;;5054953;28;20436;-87
2022/10/25 07:48:22;;;;;;;5.53;2.00;;;13.00;99.90;;;;;;5037157;28;20177;-87
2022/10/25 07:50:48;;;;;;;5.97;2.10;;;13.20;99.90;;;;;;5054709;28;20178;-86
2022/10/25 07:53:13;;;;;;;4.17;1.80;;;13.30;99.90;;;;;;5036760;28;20460;-87
2022/10/25 07:55:39;;;;;;;5.30;1.90;;;13.40;99.90;;;;;;5019937;28;20307;-87
2022/10/25 07:58:08;;;;;;;11.00;2.10;;;13.50;99.90;;;;;;5054753;28;20205;-86
2022/10/25 08:00:35;;;;;;;5.93;1.90;;;13.60;99.90;;;;;;5036720;28;20177;-86
2022/10/25 08:03:00;;;;;;;4.67;1.80;;;13.70;99.90;;;;;;5054751;28;20764;-84
2022/10/25 08:05:26;;;;;;;4.00;1.70;;;13.80;99.90;;;;;;5036607;28;20432;-87
2022/10/25 08:07:52;;;;;;;10.63;2.53;;;13.80;99.90;;;;;;5054347;28;20645;-84
2022/10/25 08:10:19;;;;;;;4.77;1.90;;;13.90;99.90;;;;;;5020134;28;20417;-86
2022/10/25 08:12:45;;;;;;;12.30;2.47;;;14.00;99.90;;;;;;5036734;28;20637;-84
2022/10/25 08:15:11;;;;;;;8.33;2.10;;;14.00;99.90;;;;;;5019908;28;20480;-83
2022/10/25 08:17:37;;;;;;;5.37;1.80;;;14.20;99.90;;;;;;5054320;28;20414;-83
2022/10/25 08:20:02;;;;;;;4.97;2.00;;;14.30;99.90;;;;;;5036610;28;20481;-84
2022/10/25 08:22:28;;;;;;;4.60;2.17;;;14.30;99.90;;;;;;5020121;28;20208;-83
2022/10/25 08:24:54;;;;;;;10.87;2.00;;;14.30;99.90;;;;;;5036537;28;20420;-84
2022/10/25 08:27:19;;;;;;;4.37;1.90;;;14.40;99.90;;;;;;5054327;28;20177;-83
2022/10/25 08:29:45;;;;;;;5.70;1.50;;;14.50;99.90;;;;;;5053805;28;20184;-84
2022/10/25 08:32:11;;;;;;;5.43;1.90;;;14.40;99.90;;;;;;5036464;28;20268;-83
2022/10/25 08:34:36;;;;;;;7.13;1.80;;;14.60;99.90;;;;;;5054017;28;20177;-84
2022/10/25 08:37:02;;;;;;;7.13;1.60;;;14.50;99.90;;;;;;5054212;28;20580;-83
2022/10/25 08:39:27;;;;;;;8.03;1.70;;;14.60;99.90;;;;;;5036312;28;20216;-83
2022/10/25 08:41:59;;;;;;;4.50;1.17;;;14.60;99.90;;;;;;5019413;28;20534;-84
2022/10/25 08:44:34;;;;;;;6.73;1.50;;;14.70;99.90;;;;;;5036018;28;20652;-83
2022/10/25 08:47:02;;;;;;;9.60;1.90;;;14.70;99.90;;;;;;5054440;28;20412;-84
2022/10/25 08:49:54;;;;;;;9.03;1.70;;;14.80;99.90;;;;;;5036208;28;20449;-83
2022/10/25 08:52:32;;;;;;;11.53;1.77;;;14.80;99.90;;;;;;5053830;28;20477;-83
2022/10/25 08:55:01;;;;;;;7.53;1.90;;;14.80;99.90;;;;;;5035917;28;20471;-84
2022/10/25 08:57:30;;;;;;;9.70;1.70;;;14.80;99.90;;;;;;5035836;28;20412;-82
2022/10/25 09:00:00;;;;;;;6.20;1.90;;;14.90;99.90;;;;;;5035510;28;20467;-83
2022/10/25 09:02:54;;;;;;;7.23;1.50;;;15.00;99.90;;;;;;5036054;28;20450;-83
2022/10/25 09:05:51;;;;;;;5.53;1.70;;;15.10;99.90;;;;;;5052929;28;20427;-83
2022/10/25 09:08:51;;;;;;;6.30;2.07;;;15.20;99.90;;;;;;5035764;28;20908;-83
2022/10/25 09:11:45;;;;;;;6.10;1.43;;;15.30;99.90;;;;;;5035907;28;20515;-82
2022/10/25 09:14:12;;;;;;;6.93;1.50;;;15.40;99.90;;;;;;5035989;28;20416;-83
2022/10/25 09:16:51;;;;;;;5.13;1.33;;;15.40;99.90;;;;;;5054838;28;20959;-83
2022/10/25 09:19:31;;;;;;;4.80;1.87;;;15.50;99.90;;;;;;5037226;28;20857;-83
2022/10/25 09:22:01;;;;;;;7.83;2.23;;;15.50;99.90;;;;;;5053069;28;20408;-83
2022/10/25 09:24:27;;;;;;;2.23;1.20;;;15.50;99.90;;;;;;5053556;28;20400;-83
2022/10/25 09:27:05;;;;;;;8.33;2.70;;;15.50;99.90;;;;;;5053288;28;20423;-84
2022/10/25 09:29:38;;;;;;;5.60;1.53;;;15.50;99.90;;;;;;5053516;28;20439;-84
2022/10/25 09:32:26;;;;;;;5.23;1.80;;;15.40;99.90;;;;;;5053237;28;20621;-84
2022/10/25 09:34:53;;;;;;;7.93;1.87;;;15.30;99.90;;;;;;5034156;28;20424;-84
2022/10/25 09:37:38;;;;;;;7.73;1.60;;;15.20;99.90;;;;;;5035249;28;20458;-84
2022/10/25 09:40:12;;;;;;;6.33;1.40;;;15.10;99.90;;;;;;5053210;28;20408;-84
2022/10/25 09:43:18;;;;;;;3.93;2.00;;;15.10;99.90;;;;;;5052748;28;20800;-84
2022/10/25 09:45:57;;;;;;;4.90;1.63;;;15.00;99.90;;;;;;5010968;28;20483;-85
2022/10/25 09:48:42;;;;;;;7.20;2.17;;;15.00;99.90;;;;;;5011448;28;20429;-85
2022/10/25 09:51:42;;;;;;;7.77;2.47;;;15.00;99.90;;;;;;5040494;28;20817;-85
2022/10/25 09:54:36;;;;;;;8.93;2.00;;;15.00;99.90;;;;;;5033809;28;20503;-84
2022/10/25 09:57:02;;;;;;;4.20;1.83;;;14.90;99.90;;;;;;5033450;28;20911;-84
2022/10/25 09:59:28;;;;;;;7.50;1.50;;;15.00;99.90;;;;;;5034686;28;20565;-85
2022/10/25 10:01:54;;;;;;;4.43;1.53;;;15.00;99.90;;;;;;5034759;28;20419;-84
2022/10/25 10:04:37;;;;;;;7.00;2.40;;;14.90;99.90;;;;;;5035371;28;20534;-84
2022/10/25 10:07:18;;;;;;;8.47;1.90;;;14.90;99.90;;;;;;5035043;28;20661;-85
2022/10/25 10:09:44;;;;;;;4.87;1.70;;;15.00;99.90;;;;;;5034718;28;20831;-84
2022/10/25 10:12:30;;;;;;;7.80;1.83;;;15.10;99.90;;;;;;5052963;28;20416;-85
2022/10/25 10:15:06;;;;;;;2.40;1.17;;;15.20;99.90;;;;;;5035418;28;20593;-85
2022/10/25 10:17:31;;;;;;;6.40;1.87;;;15.50;99.90;;;;;;5038739;28;20419;-85
2022/10/25 10:20:09;;;;;;;6.90;2.20;;;15.70;99.90;;;;;;5022134;28;20426;-85
2022/10/25 10:22:45;;;;;;;3.63;1.70;;;15.90;99.90;;;;;;5056449;28;20181;-85
2022/10/25 10:25:17;;;;;;;4.10;1.10;;;16.10;99.90;;;;;;5056399;28;20419;-85
2022/10/25 10:27:45;;;;;;;10.00;1.63;;;16.20;99.90;;;;;;5038306;28;20514;-84
2022/10/25 10:30:25;;;;;;;6.57;1.37;;;16.30;99.90;;;;;;5056566;28;20416;-84
2022/10/25 10:32:58;;;;;;;3.53;1.47;;;16.20;99.90;;;;;;5038506;28;20438;-85
2022/10/25 10:35:33;;;;;;;6.10;1.33;;;16.10;99.90;;;;;;5038431;28;20482;-85
2022/10/25 10:38:23;;;;;;;2.57;1.10;;;16.10;99.90;;;;;;5038278;28;20426;-85
2022/10/25 10:40:51;;;;;;;3.33;1.10;;;16.00;99.90;;;;;;5038042;28;20416;-84
2022/10/25 10:43:33;;;;;;;3.77;1.60;;;16.00;99.90;;;;;;5056451;28;20400;-85
2022/10/25 10:46:07;;;;;;;8.00;1.40;;;16.00;99.90;;;;;;5005451;28;20427;-85
2022/10/25 10:48:36;;;;;;;5.60;1.20;;;16.20;99.90;;;;;;5038336;28;20424;-85
2022/10/25 10:51:03;;;;;;;7.77;1.60;;;16.30;99.90;;;;;;5055679;28;20408;-84
2022/10/25 10:53:31;;;;;;;1.60;1.00;;;16.10;99.90;;;;;;5038533;28;20817;-85
2022/10/25 10:56:07;;;;;;;2.83;1.00;;;16.30;99.90;;;;;;5038510;28;20471;-85
2022/10/25 10:58:37;;;;;;;5.83;1.43;;;16.60;99.90;;;;;;5056015;28;20812;-85
2022/10/25 11:01:07;;;;;;;3.70;1.30;;;16.90;99.90;;;;;;5037603;28;20989;-85
2022/10/25 11:03:43;;;;;;;3.90;1.00;;;17.30;99.90;;;;;;5055518;28;20498;-85
2022/10/25 11:06:17;;;;;;;3.17;1.23;;;17.20;99.90;;;;;;5037639;28;20435;-85
2022/10/25 11:08:45;;;;;;;4.73;1.30;;;17.30;99.90;;;;;;5037630;28;20420;-85
2022/10/25 11:11:20;;;;;;;2.27;1.27;;;17.50;99.90;;;;;;5055783;28;20379;-85
2022/10/25 11:13:55;;;;;;;3.67;1.43;;;17.50;99.90;;;;;;5055354;28;20415;-85
2022/10/25 11:16:26;;;;;;;3.87;1.27;;;17.80;99.90;;;;;;5037853;28;20959;-85
2022/10/25 11:18:58;;;;;;;5.23;1.50;;;17.70;99.90;;;;;;5037187;28;20402;-85
2022/10/25 11:22:11;;;;;;;4.20;1.40;;;17.50;99.90;;;;;;5037413;28;20901;-86
2022/10/25 11:25:19;;;;;;;6.17;1.13;;;17.40;99.90;;;;;;4996582;28;20422;-85
2022/10/25 11:28:11;;;;;;;3.83;1.13;;;17.50;99.90;;;;;;5010415;28;20434;-85
2022/10/25 11:30:40;;;;;;;4.83;1.37;;;17.50;99.90;;;;;;5052343;28;20432;-86
2022/10/25 11:33:34;;;;;;;2.43;1.10;;;17.60;99.90;;;;;;5058801;28;20415;-86
2022/10/25 11:36:27;;;;;;;4.30;1.00;;;17.60;99.90;;;;;;5041238;28;20468;-86
2022/10/25 11:39:04;;;;;;;3.93;1.00;;;17.70;99.90;;;;;;5038229;28;20421;-85
2022/10/25 11:41:48;;;;;;;4.50;1.10;;;17.60;99.90;;;;;;5055353;28;20383;-90
2022/10/25 11:44:38;;;;;;;4.70;1.10;;;17.50;99.90;;;;;;5054969;28;20412;-87
2022/10/25 11:47:29;;;;;;;3.47;0.80;;;17.50;99.90;;;;;;5036708;28;20424;-87
2022/10/25 11:50:10;;;;;;;5.43;0.87;;;17.40;99.90;;;;;;5054708;28;20881;-87
2022/10/25 11:52:57;;;;;;;5.53;1.10;;;17.40;99.90;;;;;;5037209;28;20419;-87
2022/10/25 11:55:43;;;;;;;2.47;1.10;;;17.30;99.90;;;;;;5037897;28;20455;-87
2022/10/25 11:58:21;;;;;;;4.57;1.17;;;17.30;99.90;;;;;;5055103;28;20427;-87
2022/10/25 12:01:07;;;;;;;4.70;1.30;;;17.30;99.90;;;;;;5054598;28;20790;-88
2022/10/25 12:03:50;;;;;;;3.93;1.20;;;17.30;99.90;;;;;;5038434;28;20432;-88
2022/10/25 12:06:37;;;;;;;2.63;0.93;;;17.40;99.90;;;;;;5065769;28;20400;-88
2022/10/25 12:09:29;;;;;;;2.40;0.90;;;17.40;99.90;;;;;;5065995;28;20408;-87
2022/10/25 12:12:10;;;;;;;3.00;0.80;;;17.40;99.90;;;;;;5054719;28;20767;-88
2022/10/25 12:14:40;;;;;;;3.27;1.23;;;17.40;99.90;;;;;;5037060;28;20900;-88
2022/10/25 12:17:18;;;;;;;2.43;0.90;;;17.50;99.90;;;;;;5036742;28;20426;-88
2022/10/25 12:19:47;;;;;;;2.67;1.03;;;17.40;99.90;;;;;;5054268;28;20434;-88
2022/10/25 12:22:17;;;;;;;2.20;0.70;;;17.50;99.90;;;;;;5054124;28;21149;-89
2022/10/25 12:24:48;;;;;;;1.67;0.80;;;17.50;99.90;;;;;;5054303;28;20367;-88
2022/10/25 12:27:18;;;;;;;3.00;0.80;;;17.60;99.90;;;;;;5054183;28;20408;-88
2022/10/25 12:29:49;;;;;;;2.43;0.87;;;17.70;99.90;;;;;;5036384;28;20466;-88
2022/10/25 12:32:40;;;;;;;3.73;0.90;;;17.90;99.90;;;;;;5054299;28;20405;-89
2022/10/25 12:35:27;;;;;;;1.10;0.80;;;18.00;99.90;;;;;;5035997;28;21041;-91
2022/10/25 12:37:56;;;;;;;3.50;1.17;;;18.00;99.90;;;;;;5053802;28;20765;-91
2022/10/25 12:40:23;;;;;;;3.93;0.93;;;18.30;99.90;;;;;;5036160;28;20379;-90
2022/10/25 12:42:54;;;;;;;2.60;0.70;;;18.70;99.90;;;;;;5036061;28;20394;-90
2022/10/25 12:45:23;;;;;;;2.40;0.87;;;18.50;99.90;;;;;;5036493;28;20424;-91
2022/10/25 12:48:14;;;;;;;1.20;0.60;;;18.70;99.90;;;;;;5036187;28;20507;-89
2022/10/25 12:50:55;;;;;;;5.37;1.00;;;18.70;99.90;;;;;;5020794;28;20523;-91
2022/10/25 12:53:45;;;;;;;2.13;0.80;;;18.30;99.90;;;;;;5054045;28;20404;-89
2022/10/25 12:56:35;;;;;;;3.73;1.03;;;18.10;99.90;;;;;;5054169;28;20448;-91
2022/10/25 12:59:35;;;;;;;2.40;0.80;;;18.20;99.90;;;;;;5032187;28;20469;-90
2022/10/25 13:02:19;;;;;;;3.80;1.00;;;18.20;99.90;;;;;;5034059;28;20401;-91
2022/10/25 13:04:55;;;;;;;2.30;1.17;;;18.20;99.90;;;;;;5034414;28;20401;-90
2022/10/25 13:07:22;;;;;;;4.60;0.97;;;18.40;99.90;;;;;;5034326;28;20474;-90
2022/10/25 13:09:49;;;;;;;3.67;0.90;;;18.60;99.90;;;;;;5032801;28;20862;-90
2022/10/25 13:12:19;;;;;;;4.23;1.60;;;18.90;99.90;;;;;;5033557;28;20970;-92